Time;durP1;ratioP1;P1;durP2;ratioP2;P2;SDS_P1;SDS_P2;PMS_P1;PMS_P2;Temp;Humidity;BMP_temperature;BMP_pressure;BME280_temperature;BME280_humidity;BME280_pressure;Samples;Min_cycle;Max_cycle;Signal;HPM_P1;HPM_P2
2021/05/28 00:02:07;;;;;;;;;;;;;;;10.60;69.84;96161.91;3602183;39;19947;-54
2021/05/28 00:04:35;;;;;;;;;;;;;;;10.62;69.69;96157.19;3601661;39;19944;-55
2021/05/28 00:07:03;;;;;;;;;;;;;;;10.59;70.54;96165.59;3600387;39;19942;-54
2021/05/28 00:09:31;;;;;;;;;;;;;;;10.57;70.80;96155.31;3603571;39;19947;-55
2021/05/28 00:11:58;;;;;;;;;;;;;;;10.60;70.32;96149.50;3601660;39;20303;-53
2021/05/28 00:14:26;;;;;;;;;;;;;;;10.60;70.00;96154.78;3603038;39;20348;-54
2021/05/28 00:16:54;;;;;;;;;;;;;;;10.63;69.50;96158.78;3590941;39;19947;-53
2021/05/28 00:19:21;;;;;;;;;;;;;;;10.66;69.61;96158.28;3592215;39;19981;-54
2021/05/28 00:21:49;;;;;;;;;;;;;;;10.69;69.87;96154.34;3590230;39;20130;-55
2021/05/28 00:24:17;;;;;;;;;;;;;;;10.72;70.08;96162.56;3601003;39;21507;-53
2021/05/28 00:26:44;;;;;;;;;;;;;;;10.72;69.51;96154.66;3601508;39;19939;-54
2021/05/28 00:29:11;;;;;;;;;;;;;;;10.71;70.40;96155.69;3600617;39;20274;-54
2021/05/28 00:31:40;;;;;;;;;;;;;;;10.71;69.91;96150.41;3585318;39;19950;-54
2021/05/28 00:34:07;;;;;;;;;;;;;;;10.72;69.74;96149.38;3601474;39;19947;-54
2021/05/28 00:36:34;;;;;;;;;;;;;;;10.72;71.07;96151.19;3580947;39;20869;-54
2021/05/28 00:39:02;;;;;;;;;;;;;;;10.71;70.68;96150.41;3606824;39;20255;-54
2021/05/28 00:41:30;;;;;;;;;;;;;;;10.75;69.95;96154.16;3584736;39;19950;-54
2021/05/28 00:43:57;;;;;;;;;;;;;;;10.77;70.36;96156.53;3589077;39;19948;-54
2021/05/28 00:46:26;;;;;;;;;;;;;;;10.76;70.16;96150.47;3588909;39;19952;-54
2021/05/28 00:48:54;;;;;;;;;;;;;;;10.79;70.53;96148.34;3601652;39;19939;-54
2021/05/28 00:51:22;;;;;;;;;;;;;;;10.79;69.26;96153.63;3601404;39;20786;-54
2021/05/28 00:53:50;;;;;;;;;;;;;;;10.84;68.82;96156.31;3599798;39;22325;-54
2021/05/28 00:56:18;;;;;;;;;;;;;;;10.86;68.65;96159.50;3602033;39;20194;-54
2021/05/28 00:58:47;;;;;;;;;;;;;;;10.87;68.28;96161.88;3602583;39;19940;-55
2021/05/28 01:01:15;;;;;;;;;;;;;;;10.84;68.89;96159.75;3601265;39;19943;-54
2021/05/28 01:03:42;;;;;;;;;;;;;;;10.81;69.95;96164.72;3588301;39;19945;-55
2021/05/28 01:06:09;;;;;;;;;;;;;;;10.79;69.75;96169.47;3591165;39;19947;-54
2021/05/28 01:08:37;;;;;;;;;;;;;;;10.81;69.34;96164.72;3603723;39;20300;-55
2021/05/28 01:11:04;;;;;;;;;;;;;;;10.79;70.11;96161.53;3600439;39;19947;-55
2021/05/28 01:13:32;;;;;;;;;;;;;;;10.76;70.14;96161.03;3583908;39;20568;-54
2021/05/28 01:15:59;;;;;;;;;;;;;;;10.80;69.43;96165.78;3601817;39;19951;-55
2021/05/28 01:18:27;;;;;;;;;;;;;;;10.81;69.07;96170.00;3601890;39;19949;-55
2021/05/28 01:20:54;;;;;;;;;;;;;;;10.83;69.04;96173.19;3591566;39;19944;-54
2021/05/28 01:23:22;;;;;;;;;;;;;;;10.83;69.19;96163.44;3597209;39;19947;-54
2021/05/28 01:25:50;;;;;;;;;;;;;;;10.82;68.64;96161.88;3600542;39;20373;-54
2021/05/28 01:28:18;;;;;;;;;;;;;;;10.80;68.61;96155.22;3601053;39;19959;-55
2021/05/28 01:30:45;;;;;;;;;;;;;;;10.75;69.69;96154.16;3600650;39;19949;-54
2021/05/28 01:33:13;;;;;;;;;;;;;;;10.73;68.89;96158.06;3600127;39;19943;-54
2021/05/28 01:35:41;;;;;;;;;;;;;;;10.74;68.92;96157.84;3588965;39;19942;-54
2021/05/28 01:38:08;;;;;;;;;;;;;;;10.77;68.75;96159.16;3591505;39;19942;-55
2021/05/28 01:40:36;;;;;;;;;;;;;;;10.74;69.52;96157.03;3603675;39;20189;-55
2021/05/28 01:43:03;;;;;;;;;;;;;;;10.74;69.55;96163.13;3597877;39;20239;-54
2021/05/28 01:45:31;;;;;;;;;;;;;;;10.74;68.98;96163.13;3597415;39;20142;-54
2021/05/28 01:47:59;;;;;;;;;;;;;;;10.73;69.79;96168.63;3581349;39;19950;-54
2021/05/28 01:50:26;;;;;;;;;;;;;;;10.70;69.75;96164.66;3582663;39;19954;-56
2021/05/28 01:52:54;;;;;;;;;;;;;;;10.72;69.14;96178.38;3589077;39;20215;-54
2021/05/28 01:55:21;;;;;;;;;;;;;;;10.74;69.27;96175.50;3599912;39;19944;-54
2021/05/28 01:57:48;;;;;;;;;;;;;;;10.74;69.12;96183.41;3601210;39;19951;-54
2021/05/28 02:00:16;;;;;;;;;;;;;;;10.71;69.43;96187.34;3583371;39;19950;-54
2021/05/28 02:02:44;;;;;;;;;;;;;;;10.68;70.08;96187.84;3601017;39;19938;-54
2021/05/28 02:05:11;;;;;;;;;;;;;;;10.63;70.30;96181.72;3595153;39;19944;-54
2021/05/28 02:07:39;;;;;;;;;;;;;;;10.57;70.59;96178.22;3590459;39;19943;-55
2021/05/28 02:10:09;;;;;;;;;;;;;;;10.54;71.13;96181.38;3589030;39;21091;-55
2021/05/28 02:12:37;;;;;;;;;;;;;;;10.53;70.87;96183.22;3601172;39;20427;-54
2021/05/28 02:15:05;;;;;;;;;;;;;;;10.54;70.87;96187.44;3588226;39;19942;-55
2021/05/28 02:17:33;;;;;;;;;;;;;;;10.55;70.63;96188.22;3600702;39;19944;-55
2021/05/28 02:20:01;;;;;;;;;;;;;;;10.54;71.05;96189.28;3604498;39;20466;-55
2021/05/28 02:22:28;;;;;;;;;;;;;;;10.53;71.23;96180.59;3604116;39;19985;-55
2021/05/28 02:24:56;;;;;;;;;;;;;;;10.49;73.11;96186.59;3604413;39;19947;-55
2021/05/28 02:27:23;;;;;;;;;;;;;;;10.39;74.58;96188.09;3597851;39;19947;-55
2021/05/28 02:29:51;;;;;;;;;;;;;;;10.32;74.13;96187.44;3600909;39;19948;-60
2021/05/28 02:32:19;;;;;;;;;;;;;;;10.28;73.65;96187.16;3603349;39;19951;-55
2021/05/28 02:34:47;;;;;;;;;;;;;;;10.27;74.43;96190.81;3602325;39;19944;-55
2021/05/28 02:37:14;;;;;;;;;;;;;;;10.21;73.70;96194.47;3597626;39;19947;-55
2021/05/28 02:39:42;;;;;;;;;;;;;;;10.14;74.67;96194.66;3592309;39;19947;-54
2021/05/28 02:42:10;;;;;;;;;;;;;;;10.11;73.51;96197.75;3602989;39;20277;-54
2021/05/28 02:44:37;;;;;;;;;;;;;;;10.06;72.90;96175.81;3593107;39;20023;-54
2021/05/28 02:47:05;;;;;;;;;;;;;;;10.04;74.04;96176.03;3602297;39;19948;-54
2021/05/28 02:49:33;;;;;;;;;;;;;;;10.14;72.57;96199.91;3603271;39;20198;-53
2021/05/28 02:52:02;;;;;;;;;;;;;;;10.13;72.80;96197.50;3592520;39;19954;-54
2021/05/28 02:54:30;;;;;;;;;;;;;;;10.12;73.06;96199.34;3607014;39;19951;-54
2021/05/28 02:56:58;;;;;;;;;;;;;;;10.10;73.04;96211.97;3610948;39;19965;-54
2021/05/28 02:59:25;;;;;;;;;;;;;;;10.10;72.15;96211.16;3598244;39;19970;-54
2021/05/28 03:01:53;;;;;;;;;;;;;;;10.09;72.60;96207.75;3599021;39;19943;-54
2021/05/28 03:04:20;;;;;;;;;;;;;;;10.07;73.24;96214.31;3592241;39;19950;-54
2021/05/28 03:06:48;;;;;;;;;;;;;;;10.06;73.38;96210.88;3602549;39;19948;-60
2021/05/28 03:09:15;;;;;;;;;;;;;;;10.04;72.62;96210.31;3591683;39;19943;-55
2021/05/28 03:11:43;;;;;;;;;;;;;;;10.03;72.64;96210.56;3603374;39;20242;-55
2021/05/28 03:14:10;;;;;;;;;;;;;;;9.98;73.01;96209.44;3601367;39;19950;-54
2021/05/28 03:16:38;;;;;;;;;;;;;;;10.00;73.52;96204.72;3603945;39;19946;-55
2021/05/28 03:19:08;;;;;;;;;;;;;;;9.97;74.08;96204.44;3591603;39;19935;-56
2021/05/28 03:22:30;;;;;;;;;;;;;;;9.96;73.21;96216.81;3599666;39;19935;-54
2021/05/28 03:24:26;;;;;;;;;;;;;;;9.98;72.67;96208.66;3601241;39;19965;-54
2021/05/28 03:26:54;;;;;;;;;;;;;;;10.05;71.69;96200.56;3591222;39;19952;-53
2021/05/28 03:29:21;;;;;;;;;;;;;;;10.12;70.63;96199.34;3591945;39;19950;-54
2021/05/28 03:31:49;;;;;;;;;;;;;;;10.22;69.32;96198.66;3601988;39;19944;-54
2021/05/28 03:34:16;;;;;;;;;;;;;;;10.28;69.51;96191.59;3603315;39;19950;-55
2021/05/28 03:36:44;;;;;;;;;;;;;;;10.29;69.67;96198.47;3597843;39;19943;-55
2021/05/28 03:39:12;;;;;;;;;;;;;;;10.31;69.82;96196.41;3596021;39;19932;-54
2021/05/28 03:41:39;;;;;;;;;;;;;;;10.37;69.43;96194.59;3592846;39;19949;-54
2021/05/28 03:44:07;;;;;;;;;;;;;;;10.57;68.64;96191.44;3583616;39;19949;-59
2021/05/28 03:46:34;;;;;;;;;;;;;;;10.65;67.62;96198.88;3583685;39;19949;-54
2021/05/28 03:49:02;;;;;;;;;;;;;;;10.68;67.61;96195.75;3594464;39;19973;-54
2021/05/28 03:51:30;;;;;;;;;;;;;;;10.64;67.36;96204.41;3598107;39;19940;-54
2021/05/28 03:53:57;;;;;;;;;;;;;;;10.61;66.27;96205.72;3599870;39;19959;-54
2021/05/28 03:56:25;;;;;;;;;;;;;;;10.61;66.43;96206.50;3599454;39;19942;-54
2021/05/28 03:58:52;;;;;;;;;;;;;;;10.60;67.09;96198.84;3602973;39;19959;-54
2021/05/28 04:01:19;;;;;;;;;;;;;;;10.52;67.81;96204.56;3599534;39;19959;-54
2021/05/28 04:03:47;;;;;;;;;;;;;;;10.36;68.26;96209.66;3604736;39;20358;-54
2021/05/28 04:06:14;;;;;;;;;;;;;;;10.33;68.70;96214.63;3589274;39;19954;-54
2021/05/28 04:08:42;;;;;;;;;;;;;;;10.34;69.08;96211.72;3603465;39;19944;-54
2021/05/28 04:11:09;;;;;;;;;;;;;;;10.37;68.20;96211.25;3589468;39;20434;-54
2021/05/28 04:13:37;;;;;;;;;;;;;;;10.65;68.06;96206.81;3598961;39;19943;-54
2021/05/28 04:16:05;;;;;;;;;;;;;;;10.77;67.02;96209.31;3591523;39;19947;-54
2021/05/28 04:18:33;;;;;;;;;;;;;;;11.64;64.63;96211.81;3602263;39;19950;-54
2021/05/28 04:21:07;;;;;;;;;;;;;;;12.76;62.77;96209.13;3589778;39;19942;-55
2021/05/28 04:23:34;;;;;;;;;;;;;;;14.08;56.69;96205.91;3592522;39;19942;-55
2021/05/28 04:26:02;;;;;;;;;;;;;;;14.26;56.37;96201.03;3606155;39;19952;-54
2021/05/28 04:28:30;;;;;;;;;;;;;;;15.14;54.53;96205.88;3585866;39;19943;-54
2021/05/28 04:30:58;;;;;;;;;;;;;;;16.21;50.42;96211.25;3607225;39;20126;-54
2021/05/28 04:33:26;;;;;;;;;;;;;;;16.67;48.86;96214.41;3604139;39;19947;-55
2021/05/28 04:35:53;;;;;;;;;;;;;;;17.14;48.20;96211.88;3595796;39;19954;-54
2021/05/28 04:38:21;;;;;;;;;;;;;;;17.67;46.97;96210.75;3609855;39;19950;-55
2021/05/28 04:40:51;;;;;;;;;;;;;;;17.93;45.10;96204.94;3603141;39;19944;-55
2021/05/28 04:43:18;;;;;;;;;;;;;;;18.39;44.50;96205.97;3594994;39;19947;-54
2021/05/28 04:45:45;;;;;;;;;;;;;;;19.02;42.05;96207.00;3598390;39;20079;-54
2021/05/28 04:48:13;;;;;;;;;;;;;;;19.66;41.90;96208.69;3602257;39;20215;-54
2021/05/28 04:50:40;;;;;;;;;;;;;;;20.22;39.14;96205.63;3608299;39;19942;-55
2021/05/28 04:53:08;;;;;;;;;;;;;;;20.53;38.42;96212.00;3604392;39;19935;-56
2021/05/28 04:55:35;;;;;;;;;;;;;;;20.63;38.80;96213.59;3597138;39;20326;-55
2021/05/28 04:58:03;;;;;;;;;;;;;;;20.86;37.79;96211.59;3586097;39;20070;-56
2021/05/28 05:00:31;;;;;;;;;;;;;;;20.62;39.32;96203.97;3610603;39;19954;-55
2021/05/28 05:02:58;;;;;;;;;;;;;;;20.55;37.55;96199.88;3594558;39;19943;-56
2021/05/28 05:05:27;;;;;;;;;;;;;;;20.73;37.65;96203.34;3606369;39;20389;-55
2021/05/28 05:07:54;;;;;;;;;;;;;;;20.48;37.54;96199.56;3612249;39;20254;-55
2021/05/28 05:10:22;;;;;;;;;;;;;;;20.56;37.46;96198.78;3579320;39;20188;-56
2021/05/28 05:12:49;;;;;;;;;;;;;;;20.13;37.92;96197.56;3602812;39;19949;-55
2021/05/28 05:15:17;;;;;;;;;;;;;;;19.50;39.23;96204.84;3594833;39;19940;-55
2021/05/28 05:17:44;;;;;;;;;;;;;;;19.10;38.34;96194.81;3606842;39;20434;-55
2021/05/28 05:20:12;;;;;;;;;;;;;;;18.45;39.44;96202.09;3584364;39;19944;-56
2021/05/28 05:22:39;;;;;;;;;;;;;;;17.83;42.19;96203.28;3604577;39;19935;-55
2021/05/28 05:25:08;;;;;;;;;;;;;;;17.21;42.78;96197.09;3605137;39;20269;-60
2021/05/28 05:27:35;;;;;;;;;;;;;;;16.87;42.92;96200.00;3607552;39;19944;-59
2021/05/28 05:30:03;;;;;;;;;;;;;;;16.56;42.93;96203.09;3600342;39;19961;-55
2021/05/28 05:32:31;;;;;;;;;;;;;;;16.28;43.53;96202.91;3585375;39;19950;-55
2021/05/28 05:34:58;;;;;;;;;;;;;;;16.11;44.77;96198.06;3589242;39;19936;-54
2021/05/28 05:37:26;;;;;;;;;;;;;;;16.06;44.25;96201.56;3600510;39;19942;-54
2021/05/28 05:39:53;;;;;;;;;;;;;;;15.81;45.28;96203.41;3605824;39;19940;-54
2021/05/28 05:42:21;;;;;;;;;;;;;;;15.62;44.47;96199.88;3591820;39;19944;-53
2021/05/28 05:44:49;;;;;;;;;;;;;;;15.60;44.33;96202.81;3603520;39;20371;-55
2021/05/28 05:47:16;;;;;;;;;;;;;;;15.63;45.60;96199.59;3578685;39;19949;-54
2021/05/28 05:49:43;;;;;;;;;;;;;;;15.62;45.12;96198.00;3600164;39;19977;-54
2021/05/28 05:52:11;;;;;;;;;;;;;;;15.67;45.00;96208.59;3596080;39;19936;-54
2021/05/28 05:54:39;;;;;;;;;;;;;;;15.66;45.61;96209.69;3599531;39;19953;-54
2021/05/28 05:57:07;;;;;;;;;;;;;;;15.46;45.21;96207.19;3609344;39;19950;-54
2021/05/28 05:59:34;;;;;;;;;;;;;;;15.45;47.17;96208.25;3590182;39;19935;-54
2021/05/28 06:02:02;;;;;;;;;;;;;;;15.36;46.82;96213.41;3593761;39;19942;-54
2021/05/28 06:04:29;;;;;;;;;;;;;;;15.38;46.22;96209.38;3608258;39;20323;-54
2021/05/28 06:06:57;;;;;;;;;;;;;;;15.43;46.57;96205.09;3603627;39;19944;-54
2021/05/28 06:09:24;;;;;;;;;;;;;;;15.46;46.50;96213.31;3608819;39;19962;-54
2021/05/28 06:11:51;;;;;;;;;;;;;;;15.53;47.15;96213.00;3588683;39;19947;-55
2021/05/28 06:14:19;;;;;;;;;;;;;;;15.38;45.91;96220.03;3594519;39;20293;-55
2021/05/28 06:16:46;;;;;;;;;;;;;;;15.51;46.82;96220.44;3606275;39;19965;-54
2021/05/28 06:19:14;;;;;;;;;;;;;;;15.58;46.43;96209.50;3584349;39;19940;-54
2021/05/28 06:21:42;;;;;;;;;;;;;;;15.59;46.53;96224.38;3575964;39;19943;-54
2021/05/28 06:24:09;;;;;;;;;;;;;;;15.64;45.38;96225.13;3602861;39;19944;-54
2021/05/28 06:26:37;;;;;;;;;;;;;;;15.57;45.45;96221.97;3598182;39;19943;-54
2021/05/28 06:29:06;;;;;;;;;;;;;;;15.72;45.05;96229.03;3606325;39;20279;-54
2021/05/28 06:31:34;;;;;;;;;;;;;;;15.77;46.16;96236.16;3604608;39;19946;-54
2021/05/28 06:34:02;;;;;;;;;;;;;;;15.83;45.24;96241.16;3606485;39;19944;-54
2021/05/28 06:36:29;;;;;;;;;;;;;;;15.96;45.67;96245.03;3595926;39;20289;-54
2021/05/28 06:38:57;;;;;;;;;;;;;;;16.04;44.85;96240.19;3605650;39;20154;-54
2021/05/28 06:41:24;;;;;;;;;;;;;;;16.05;44.64;96242.56;3599873;39;21997;-54
2021/05/28 06:43:52;;;;;;;;;;;;;;;15.99;44.08;96239.16;3604986;39;19936;-55
2021/05/28 06:46:19;;;;;;;;;;;;;;;16.18;45.34;96238.44;3593283;39;19949;-55
2021/05/28 06:48:47;;;;;;;;;;;;;;;16.29;44.47;96242.56;3603700;39;19948;-54
2021/05/28 06:51:17;;;;;;;;;;;;;;;16.27;43.78;96244.72;3596891;39;20023;-54
2021/05/28 06:53:45;;;;;;;;;;;;;;;16.23;43.90;96243.69;3597817;39;20212;-53
2021/05/28 06:56:12;;;;;;;;;;;;;;;15.99;43.91;96244.47;3612934;39;19942;-56
2021/05/28 06:58:47;;;;;;;;;;;;;;;16.03;44.23;96243.94;3607489;39;19935;-55
2021/05/28 07:01:14;;;;;;;;;;;;;;;16.18;43.91;96251.75;3601335;39;19953;-55
2021/05/28 07:03:42;;;;;;;;;;;;;;;16.20;43.58;96248.78;3592811;39;19939;-56
2021/05/28 07:06:10;;;;;;;;;;;;;;;16.39;43.91;96240.84;3611357;39;19946;-55
2021/05/28 07:08:37;;;;;;;;;;;;;;;16.59;44.50;96239.81;3600112;39;19940;-55
2021/05/28 07:11:07;;;;;;;;;;;;;;;16.65;43.94;96245.88;3599727;39;19935;-56
2021/05/28 07:13:34;;;;;;;;;;;;;;;16.20;43.44;96254.91;3613759;39;19936;-56
2021/05/28 07:16:02;;;;;;;;;;;;;;;16.25;44.16;96249.53;3615048;39;19936;-54
2021/05/28 07:18:29;;;;;;;;;;;;;;;16.62;44.00;96249.09;3599691;39;19950;-54
2021/05/28 07:20:57;;;;;;;;;;;;;;;16.72;42.92;96247.09;3609568;39;20676;-54
2021/05/28 07:23:25;;;;;;;;;;;;;;;16.05;44.43;96239.91;3604540;39;19951;-53
2021/05/28 07:25:52;;;;;;;;;;;;;;;15.90;45.39;96240.84;3597728;39;19958;-54
2021/05/28 07:28:20;;;;;;;;;;;;;;;16.14;44.00;96250.72;3594277;39;19943;-55
2021/05/28 07:30:48;;;;;;;;;;;;;;;16.07;44.15;96244.94;3599607;39;19936;-54
2021/05/28 07:33:15;;;;;;;;;;;;;;;16.16;43.75;96243.25;3606187;39;19977;-54
2021/05/28 07:35:43;;;;;;;;;;;;;;;16.06;43.10;96235.38;3592564;39;20430;-54
2021/05/28 07:38:10;;;;;;;;;;;;;;;16.13;40.96;96233.94;3590218;39;19942;-54
2021/05/28 07:40:38;;;;;;;;;;;;;;;16.25;43.11;96236.22;3598340;39;19959;-53
2021/05/28 07:43:06;;;;;;;;;;;;;;;16.48;41.44;96233.81;3592486;39;20005;-54
2021/05/28 07:45:33;;;;;;;;;;;;;;;16.56;42.01;96241.16;3587165;39;19944;-55
2021/05/28 07:48:01;;;;;;;;;;;;;;;16.69;41.53;96236.22;3582474;39;19948;-54
2021/05/28 07:50:44;;;;;;;;;;;;;;;16.92;40.04;96232.69;3595825;39;19948;-54
2021/05/28 07:53:13;;;;;;;;;;;;;;;17.07;40.08;96238.91;3587267;39;19943;-55
2021/05/28 07:55:41;;;;;;;;;;;;;;;17.29;41.39;96232.97;3591583;39;19943;-54
2021/05/28 07:58:08;;;;;;;;;;;;;;;17.02;40.89;96241.66;3601043;39;19936;-54
2021/05/28 08:00:36;;;;;;;;;;;;;;;17.23;41.47;96230.69;3600018;39;19943;-55
2021/05/28 08:03:03;;;;;;;;;;;;;;;17.65;41.14;96231.63;3605963;39;19937;-54
2021/05/28 08:05:31;;;;;;;;;;;;;;;18.08;40.19;96228.72;3596101;39;19935;-55
2021/05/28 08:07:59;;;;;;;;;;;;;;;18.56;39.96;96230.19;3604820;39;19948;-55
2021/05/28 08:10:27;;;;;;;;;;;;;;;19.06;37.96;96217.91;3610605;39;20066;-55
2021/05/28 08:12:54;;;;;;;;;;;;;;;19.33;36.48;96211.66;3611324;39;19935;-56
2021/05/28 08:15:23;;;;;;;;;;;;;;;19.03;35.96;96229.19;3599678;39;19959;-55
2021/05/28 08:17:50;;;;;;;;;;;;;;;18.35;36.51;96229.81;3611402;39;20220;-55
2021/05/28 08:20:18;;;;;;;;;;;;;;;18.33;36.92;96223.19;3597711;39;19943;-55
2021/05/28 08:22:45;;;;;;;;;;;;;;;18.27;37.31;96222.50;3608694;39;19935;-55
2021/05/28 08:25:13;;;;;;;;;;;;;;;18.31;37.04;96230.69;3593243;39;19945;-55
2021/05/28 08:27:40;;;;;;;;;;;;;;;18.54;36.63;96228.88;3590907;39;19944;-55
2021/05/28 08:30:13;;;;;;;;;;;;;;;18.57;36.76;96222.94;3607508;39;19939;-62
2021/05/28 08:32:41;;;;;;;;;;;;;;;18.57;37.41;96218.41;3588962;39;19945;-55
2021/05/28 08:35:09;;;;;;;;;;;;;;;19.01;36.67;96218.03;3593571;39;20205;-55
2021/05/28 08:37:37;;;;;;;;;;;;;;;19.43;35.96;96205.25;3600446;39;19940;-55
2021/05/28 08:40:06;;;;;;;;;;;;;;;19.57;34.98;96215.09;3594487;39;19966;-55
2021/05/28 08:42:34;;;;;;;;;;;;;;;19.64;35.47;96218.91;3609337;39;19943;-55
2021/05/28 08:45:03;;;;;;;;;;;;;;;19.63;35.61;96222.66;3609566;39;19935;-55
2021/05/28 08:47:30;;;;;;;;;;;;;;;19.63;36.36;96219.22;3593882;39;19947;-55
2021/05/28 08:49:59;;;;;;;;;;;;;;;19.21;35.79;96219.44;3596036;39;19944;-55
2021/05/28 08:52:27;;;;;;;;;;;;;;;19.00;36.36;96225.25;3609146;39;20065;-55
2021/05/28 08:54:54;;;;;;;;;;;;;;;19.09;36.23;96222.63;3610060;39;20296;-55
2021/05/28 08:57:23;;;;;;;;;;;;;;;19.25;35.44;96217.75;3608349;39;19944;-55
2021/05/28 08:59:50;;;;;;;;;;;;;;;19.41;36.07;96223.50;3597546;39;19944;-56
2021/05/28 09:02:34;;;;;;;;;;;;;;;19.28;35.47;96222.47;3609234;39;19936;-55
2021/05/28 09:05:10;;;;;;;;;;;;;;;19.26;36.09;96216.63;3608536;39;20034;-55
2021/05/28 09:07:39;;;;;;;;;;;;;;;19.25;35.02;96220.41;3604993;39;19939;-56
2021/05/28 09:10:26;;;;;;;;;;;;;;;19.22;35.96;96210.31;3609161;39;19943;-55
2021/05/28 09:12:54;;;;;;;;;;;;;;;19.21;35.70;96214.09;3611388;39;19942;-55
2021/05/28 09:15:21;;;;;;;;;;;;;;;19.11;36.55;96230.38;3598659;39;19935;-55
2021/05/28 09:17:50;;;;;;;;;;;;;;;19.12;37.49;96231.94;3609406;39;21406;-55
2021/05/28 09:20:18;;;;;;;;;;;;;;;18.96;36.38;96234.97;3580589;39;19942;-55
2021/05/28 09:22:46;;;;;;;;;;;;;;;18.87;37.65;96234.84;3608661;39;19944;-55
2021/05/28 09:25:14;;;;;;;;;;;;;;;18.60;37.18;96236.50;3603697;39;20253;-55
2021/05/28 09:27:47;;;;;;;;;;;;;;;18.39;37.01;96236.16;3608050;39;20251;-55
2021/05/28 09:30:17;;;;;;;;;;;;;;;18.37;37.02;96234.84;3610009;39;19935;-55
2021/05/28 09:32:46;;;;;;;;;;;;;;;18.11;38.03;96241.47;3591686;39;21488;-55
2021/05/28 09:35:15;;;;;;;;;;;;;;;18.16;38.28;96221.09;3594047;39;19943;-55
2021/05/28 09:37:52;;;;;;;;;;;;;;;18.18;37.26;96218.91;3600087;39;19944;-55
2021/05/28 09:40:30;;;;;;;;;;;;;;;18.30;38.67;96219.22;3611574;39;20000;-55
2021/05/28 09:42:59;;;;;;;;;;;;;;;18.88;37.72;96206.25;3611684;39;20335;-55
2021/05/28 09:45:30;;;;;;;;;;;;;;;19.16;37.47;96206.16;3598036;39;19944;-55
2021/05/28 09:48:01;;;;;;;;;;;;;;;19.51;35.36;96217.09;3601314;39;20175;-55
2021/05/28 09:50:33;;;;;;;;;;;;;;;19.00;36.39;96217.25;3594761;39;20023;-55
2021/05/28 09:53:05;;;;;;;;;;;;;;;18.78;36.49;96222.50;3609421;39;20340;-55
2021/05/28 09:55:36;;;;;;;;;;;;;;;18.49;37.21;96215.66;3595529;39;19990;-55
2021/05/28 09:58:03;;;;;;;;;;;;;;;18.25;37.29;96212.09;3597281;39;19944;-55
2021/05/28 10:00:35;;;;;;;;;;;;;;;18.28;37.35;96216.03;3604859;39;19946;-55
2021/05/28 10:03:12;;;;;;;;;;;;;;;17.99;38.85;96214.47;3593257;39;20032;-55
2021/05/28 10:05:41;;;;;;;;;;;;;;;18.34;38.56;96200.75;3607628;39;19948;-55
2021/05/28 10:08:10;;;;;;;;;;;;;;;18.77;38.13;96205.69;3603842;39;19947;-55
2021/05/28 10:10:39;;;;;;;;;;;;;;;19.31;36.28;96207.72;3602297;39;19939;-55
2021/05/28 10:13:10;;;;;;;;;;;;;;;18.44;37.55;96195.19;3597033;39;20348;-56
2021/05/28 10:15:42;;;;;;;;;;;;;;;18.11;38.52;96212.13;3604674;39;20016;-55
2021/05/28 10:18:10;;;;;;;;;;;;;;;17.98;37.75;96207.56;3608416;39;19943;-55
2021/05/28 10:20:38;;;;;;;;;;;;;;;17.79;39.02;96195.06;3605473;39;19943;-55
2021/05/28 10:23:06;;;;;;;;;;;;;;;17.89;39.14;96188.75;3598107;39;19939;-54
2021/05/28 10:25:35;;;;;;;;;;;;;;;17.68;38.82;96201.66;3603776;39;19993;-54
2021/05/28 10:28:04;;;;;;;;;;;;;;;17.71;38.57;96198.41;3603392;39;19957;-57
2021/05/28 10:30:37;;;;;;;;;;;;;;;17.84;38.21;96194.19;3605673;39;19944;-57
2021/05/28 10:33:13;;;;;;;;;;;;;;;17.59;38.72;96192.75;3583414;39;19947;-55
2021/05/28 10:35:45;;;;;;;;;;;;;;;17.88;38.46;96195.16;3606466;39;19962;-55
2021/05/28 10:38:32;;;;;;;;;;;;;;;18.02;39.38;96200.56;3608016;39;19954;-56
2021/05/28 10:40:59;;;;;;;;;;;;;;;17.76;40.13;96194.84;3590228;39;19939;-55
2021/05/28 10:43:27;;;;;;;;;;;;;;;18.05;37.82;96197.28;3595178;39;20495;-55
2021/05/28 10:46:05;;;;;;;;;;;;;;;18.22;37.18;96194.00;3589342;39;19940;-55
2021/05/28 10:51:08;;;;;;;;;;;;;;;18.49;36.97;96192.38;3605362;39;19935;-55
2021/05/28 10:53:35;;;;;;;;;;;;;;;18.16;36.68;96183.72;3603401;39;20702;-56
2021/05/28 10:56:07;;;;;;;;;;;;;;;18.43;37.02;96186.38;3597377;39;20000;-55
2021/05/28 10:58:54;;;;;;;;;;;;;;;18.29;37.88;96174.91;3607533;39;19943;-55
2021/05/28 11:01:40;;;;;;;;;;;;;;;18.50;38.13;96190.53;3593058;39;19939;-54
2021/05/28 11:04:08;;;;;;;;;;;;;;;18.75;36.79;96197.19;3597980;39;19936;-56
2021/05/28 11:06:59;;;;;;;;;;;;;;;18.58;36.46;96192.47;3595696;39;19944;-54
2021/05/28 11:09:56;;;;;;;;;;;;;;;18.90;35.37;96190.69;3599727;39;19950;-54
2021/05/28 11:12:25;;;;;;;;;;;;;;;19.03;36.14;96191.78;3595222;39;19944;-54
2021/05/28 11:15:14;;;;;;;;;;;;;;;19.19;36.44;96198.34;3602125;39;19942;-53
2021/05/28 11:17:54;;;;;;;;;;;;;;;19.05;37.74;96195.72;3600975;39;19946;-54
2021/05/28 11:20:40;;;;;;;;;;;;;;;19.07;37.06;96198.09;3595146;39;20412;-54
2021/05/28 11:23:08;;;;;;;;;;;;;;;19.07;36.18;96192.75;3578503;39;19942;-58
2021/05/28 11:25:44;;;;;;;;;;;;;;;18.98;34.72;96202.56;3601929;39;20330;-55
2021/05/28 11:28:12;;;;;;;;;;;;;;;18.47;36.81;96201.78;3598165;39;19936;-55
2021/05/28 11:30:59;;;;;;;;;;;;;;;18.54;36.72;96202.16;3599387;39;19944;-55
2021/05/28 11:33:34;;;;;;;;;;;;;;;18.65;36.86;96194.75;3594718;39;19975;-53
2021/05/28 11:36:23;;;;;;;;;;;;;;;19.05;35.65;96198.41;3597973;39;19940;-54
2021/05/28 11:38:57;;;;;;;;;;;;;;;19.38;36.83;96201.94;3596637;39;19942;-54
2021/05/28 11:41:44;;;;;;;;;;;;;;;19.48;36.12;96197.09;3601372;39;20293;-54
2021/05/28 11:44:12;;;;;;;;;;;;;;;19.58;35.74;96216.66;3597299;39;19942;-54
2021/05/28 11:46:42;;;;;;;;;;;;;;;19.13;35.08;96206.81;3597345;39;20316;-56
2021/05/28 11:49:10;;;;;;;;;;;;;;;18.37;37.46;96216.16;3604719;39;19947;-54
2021/05/28 11:51:37;;;;;;;;;;;;;;;18.86;35.97;96216.47;3596580;39;20082;-54
2021/05/28 11:54:23;;;;;;;;;;;;;;;18.84;35.64;96215.97;3601218;39;20269;-53
2021/05/28 11:56:55;;;;;;;;;;;;;;;18.59;36.75;96205.53;3597437;39;20189;-53
2021/05/28 11:59:42;;;;;;;;;;;;;;;18.86;36.54;96209.22;3597658;39;19944;-54
2021/05/28 12:02:10;;;;;;;;;;;;;;;18.99;37.36;96212.97;3599556;39;19970;-53
2021/05/28 12:04:38;;;;;;;;;;;;;;;19.02;36.76;96215.03;3609902;39;20211;-54
2021/05/28 12:07:08;;;;;;;;;;;;;;;18.95;35.59;96206.66;3612650;39;19944;-53
2021/05/28 12:09:56;;;;;;;;;;;;;;;18.91;36.05;96202.97;3606063;39;19942;-54
2021/05/28 12:12:23;;;;;;;;;;;;;;;18.87;37.09;96197.44;3607321;39;19950;-54
2021/05/28 12:15:09;;;;;;;;;;;;;;;19.15;36.62;96200.03;3599725;39;19943;-54
2021/05/28 12:17:37;;;;;;;;;;;;;;;19.17;35.99;96189.84;3611333;39;19944;-54
2021/05/28 12:20:14;;;;;;;;;;;;;;;18.77;35.59;96194.22;3601321;39;19950;-54
2021/05/28 12:22:58;;;;;;;;;;;;;;;18.59;35.93;96194.06;3614324;39;19943;-53
2021/05/28 12:25:26;;;;;;;;;;;;;;;18.29;37.14;96199.75;3600042;39;19938;-53
2021/05/28 12:27:54;;;;;;;;;;;;;;;18.42;36.00;96189.34;3612544;39;19943;-53
2021/05/28 12:30:25;;;;;;;;;;;;;;;18.49;36.34;96191.59;3604617;39;20182;-53
2021/05/28 12:32:53;;;;;;;;;;;;;;;18.35;36.46;96192.41;3599243;39;20031;-54
2021/05/28 12:35:21;;;;;;;;;;;;;;;18.19;36.57;96191.13;3605461;39;19944;-54
2021/05/28 12:38:24;;;;;;;;;;;;;;;18.40;35.53;96191.53;3610982;39;19935;-54
2021/05/28 12:40:52;;;;;;;;;;;;;;;18.47;36.94;96196.44;3543896;40;19949;-54
2021/05/28 12:43:24;;;;;;;;;;;;;;;18.24;36.80;96197.16;3589833;39;19935;-54
2021/05/28 12:45:53;;;;;;;;;;;;;;;18.53;36.57;96196.03;3599741;39;19940;-58
2021/05/28 12:48:21;;;;;;;;;;;;;;;18.53;36.89;96205.94;3609634;39;20181;-54
2021/05/28 12:50:50;;;;;;;;;;;;;;;18.52;36.01;96199.81;3596195;39;19944;-54
2021/05/28 12:53:21;;;;;;;;;;;;;;;18.67;35.84;96198.69;3595468;39;19936;-54
2021/05/28 12:55:53;;;;;;;;;;;;;;;18.84;36.75;96203.38;3597647;39;20182;-54
2021/05/28 12:58:22;;;;;;;;;;;;;;;18.97;36.10;96195.66;3612569;39;19935;-54
2021/05/28 13:00:57;;;;;;;;;;;;;;;19.08;34.36;96198.88;3610338;39;19973;-55
2021/05/28 13:03:51;;;;;;;;;;;;;;;19.04;35.64;96196.81;3609487;39;19943;-54